sensor_id;sensor_type;location;lat;lon;timestamp;temperature;humidity
4487;DHT22;2256;48.740;9.106;2022-12-29T00:02:22;8.60;99.90
4487;DHT22;2256;48.740;9.106;2022-12-29T00:04:49;8.70;99.90
4487;DHT22;2256;48.740;9.106;2022-12-29T00:07:16;8.80;99.90
4487;DHT22;2256;48.740;9.106;2022-12-29T00:09:44;8.70;99.90
4487;DHT22;2256;48.740;9.106;2022-12-29T00:12:11;8.80;99.90
4487;DHT22;2256;48.740;9.106;2022-12-29T00:14:37;8.80;99.90
4487;DHT22;2256;48.740;9.106;2022-12-29T00:17:21;8.80;99.90
4487;DHT22;2256;48.740;9.106;2022-12-29T00:19:48;8.90;99.90
4487;DHT22;2256;48.740;9.106;2022-12-29T00:22:33;8.80;99.90
4487;DHT22;2256;48.740;9.106;2022-12-29T00:25:18;8.80;99.90
4487;DHT22;2256;48.740;9.106;2022-12-29T00:28:04;8.90;99.90
4487;DHT22;2256;48.740;9.106;2022-12-29T00:30:48;8.90;99.90
4487;DHT22;2256;48.740;9.106;2022-12-29T00:33:33;8.90;99.90
4487;DHT22;2256;48.740;9.106;2022-12-29T00:36:20;8.70;99.90
4487;DHT22;2256;48.740;9.106;2022-12-29T00:38:50;8.80;99.90
4487;DHT22;2256;48.740;9.106;2022-12-29T00:41:36;8.80;99.90
4487;DHT22;2256;48.740;9.106;2022-12-29T00:44:20;8.90;99.90
4487;DHT22;2256;48.740;9.106;2022-12-29T00:46:47;8.90;99.90
4487;DHT22;2256;48.740;9.106;2022-12-29T00:49:14;8.90;99.90
4487;DHT22;2256;48.740;9.106;2022-12-29T00:51:59;9.00;99.90
4487;DHT22;2256;48.740;9.106;2022-12-29T00:54:27;9.00;99.90
4487;DHT22;2256;48.740;9.106;2022-12-29T00:56:55;9.00;99.90
4487;DHT22;2256;48.740;9.106;2022-12-29T00:59:22;9.10;99.90
4487;DHT22;2256;48.740;9.106;2022-12-29T01:01:50;9.00;99.90
4487;DHT22;2256;48.740;9.106;2022-12-29T01:04:18;8.90;99.90
4487;DHT22;2256;48.740;9.106;2022-12-29T01:06:45;8.90;99.90
4487;DHT22;2256;48.740;9.106;2022-12-29T01:09:12;8.90;99.90
4487;DHT22;2256;48.740;9.106;2022-12-29T01:11:58;9.00;99.90
4487;DHT22;2256;48.740;9.106;2022-12-29T01:14:26;9.10;99.90
4487;DHT22;2256;48.740;9.106;2022-12-29T01:16:53;9.10;99.90
4487;DHT22;2256;48.740;9.106;2022-12-29T01:19:21;9.30;99.90
4487;DHT22;2256;48.740;9.106;2022-12-29T01:21:48;9.10;99.90
4487;DHT22;2256;48.740;9.106;2022-12-29T01:24:16;9.10;99.90
4487;DHT22;2256;48.740;9.106;2022-12-29T01:26:43;9.30;99.90
4487;DHT22;2256;48.740;9.106;2022-12-29T01:29:12;9.30;99.90
4487;DHT22;2256;48.740;9.106;2022-12-29T01:31:39;9.30;99.90
4487;DHT22;2256;48.740;9.106;2022-12-29T01:34:06;9.30;99.90
4487;DHT22;2256;48.740;9.106;2022-12-29T01:36:33;9.30;99.90
4487;DHT22;2256;48.740;9.106;2022-12-29T01:38:59;9.30;99.90
4487;DHT22;2256;48.740;9.106;2022-12-29T01:41:26;9.30;99.90
4487;DHT22;2256;48.740;9.106;2022-12-29T01:43:55;9.40;99.90
4487;DHT22;2256;48.740;9.106;2022-12-29T01:46:29;9.40;99.90
4487;DHT22;2256;48.740;9.106;2022-12-29T01:49:02;9.50;99.90
4487;DHT22;2256;48.740;9.106;2022-12-29T01:51:34;9.70;99.90
4487;DHT22;2256;48.740;9.106;2022-12-29T01:54:05;9.50;99.90
4487;DHT22;2256;48.740;9.106;2022-12-29T01:56:33;9.60;99.90
4487;DHT22;2256;48.740;9.106;2022-12-29T01:59:02;9.60;99.90
4487;DHT22;2256;48.740;9.106;2022-12-29T02:01:33;9.60;99.90
4487;DHT22;2256;48.740;9.106;2022-12-29T02:04:00;9.70;99.90
4487;DHT22;2256;48.740;9.106;2022-12-29T02:06:29;9.70;99.90
4487;DHT22;2256;48.740;9.106;2022-12-29T02:08:58;9.70;99.90
4487;DHT22;2256;48.740;9.106;2022-12-29T02:11:26;9.70;99.90
4487;DHT22;2256;48.740;9.106;2022-12-29T02:13:53;9.60;99.90
4487;DHT22;2256;48.740;9.106;2022-12-29T02:16:34;9.60;99.90
4487;DHT22;2256;48.740;9.106;2022-12-29T02:19:19;9.60;99.90
4487;DHT22;2256;48.740;9.106;2022-12-29T02:22:11;9.60;99.90
4487;DHT22;2256;48.740;9.106;2022-12-29T02:25:22;9.60;99.90
4487;DHT22;2256;48.740;9.106;2022-12-29T02:27:58;9.60;99.90
4487;DHT22;2256;48.740;9.106;2022-12-29T02:30:44;9.70;99.90
4487;DHT22;2256;48.740;9.106;2022-12-29T02:33:20;9.60;99.90
4487;DHT22;2256;48.740;9.106;2022-12-29T02:35:54;9.70;99.90
4487;DHT22;2256;48.740;9.106;2022-12-29T02:38:33;9.70;99.90
4487;DHT22;2256;48.740;9.106;2022-12-29T02:41:07;9.70;99.90
4487;DHT22;2256;48.740;9.106;2022-12-29T02:43:41;9.70;99.90
4487;DHT22;2256;48.740;9.106;2022-12-29T02:46:19;9.80;99.90
4487;DHT22;2256;48.740;9.106;2022-12-29T02:48:54;9.80;99.90
4487;DHT22;2256;48.740;9.106;2022-12-29T02:51:26;9.80;99.90
4487;DHT22;2256;48.740;9.106;2022-12-29T02:53:55;9.80;99.90
4487;DHT22;2256;48.740;9.106;2022-12-29T02:56:40;9.90;99.90
4487;DHT22;2256;48.740;9.106;2022-12-29T02:59:08;9.80;99.90
4487;DHT22;2256;48.740;9.106;2022-12-29T03:01:50;9.90;99.90
4487;DHT22;2256;48.740;9.106;2022-12-29T03:04:42;9.90;99.90
4487;DHT22;2256;48.740;9.106;2022-12-29T03:07:17;10.00;99.90
4487;DHT22;2256;48.740;9.106;2022-12-29T03:09:52;10.00;99.90
4487;DHT22;2256;48.740;9.106;2022-12-29T03:12:27;10.10;99.90
4487;DHT22;2256;48.740;9.106;2022-12-29T03:15:18;10.00;99.90
4487;DHT22;2256;48.740;9.106;2022-12-29T03:18:12;9.90;99.90
4487;DHT22;2256;48.740;9.106;2022-12-29T03:20:45;10.00;99.90
4487;DHT22;2256;48.740;9.106;2022-12-29T03:23:16;10.00;99.90
4487;DHT22;2256;48.740;9.106;2022-12-29T03:25:47;10.20;99.90
4487;DHT22;2256;48.740;9.106;2022-12-29T03:28:18;10.20;99.90
4487;DHT22;2256;48.740;9.106;2022-12-29T03:30:47;10.30;99.90
4487;DHT22;2256;48.740;9.106;2022-12-29T03:33:18;10.30;99.90
4487;DHT22;2256;48.740;9.106;2022-12-29T03:35:49;10.30;99.90
4487;DHT22;2256;48.740;9.106;2022-12-29T03:38:22;10.30;99.90
4487;DHT22;2256;48.740;9.106;2022-12-29T03:40:55;10.40;99.90
4487;DHT22;2256;48.740;9.106;2022-12-29T03:43:22;10.30;99.90
4487;DHT22;2256;48.740;9.106;2022-12-29T03:45:49;10.50;99.90
4487;DHT22;2256;48.740;9.106;2022-12-29T03:48:17;10.50;99.90
4487;DHT22;2256;48.740;9.106;2022-12-29T03:50:44;10.50;99.90
4487;DHT22;2256;48.740;9.106;2022-12-29T03:53:11;10.60;99.90
4487;DHT22;2256;48.740;9.106;2022-12-29T03:55:38;10.60;99.90
4487;DHT22;2256;48.740;9.106;2022-12-29T03:58:06;10.60;99.90
4487;DHT22;2256;48.740;9.106;2022-12-29T04:00:32;10.70;99.90
4487;DHT22;2256;48.740;9.106;2022-12-29T04:02:59;10.50;99.90
4487;DHT22;2256;48.740;9.106;2022-12-29T04:05:27;10.40;99.90
4487;DHT22;2256;48.740;9.106;2022-12-29T04:07:54;10.40;99.90
4487;DHT22;2256;48.740;9.106;2022-12-29T04:10:21;10.30;99.90
4487;DHT22;2256;48.740;9.106;2022-12-29T04:12:48;10.20;99.90
4487;DHT22;2256;48.740;9.106;2022-12-29T04:15:15;10.10;99.90
4487;DHT22;2256;48.740;9.106;2022-12-29T04:17:41;10.10;99.90
4487;DHT22;2256;48.740;9.106;2022-12-29T04:20:08;10.10;99.90
4487;DHT22;2256;48.740;9.106;2022-12-29T04:22:59;10.00;99.90
4487;DHT22;2256;48.740;9.106;2022-12-29T04:25:26;9.90;99.90
4487;DHT22;2256;48.740;9.106;2022-12-29T04:27:53;9.90;99.90
4487;DHT22;2256;48.740;9.106;2022-12-29T04:30:20;10.00;99.90
4487;DHT22;2256;48.740;9.106;2022-12-29T04:32:47;10.00;99.90
4487;DHT22;2256;48.740;9.106;2022-12-29T04:35:13;10.00;99.90
4487;DHT22;2256;48.740;9.106;2022-12-29T04:37:41;10.10;99.90
4487;DHT22;2256;48.740;9.106;2022-12-29T04:40:11;10.10;99.90
4487;DHT22;2256;48.740;9.106;2022-12-29T04:42:37;10.20;99.90
4487;DHT22;2256;48.740;9.106;2022-12-29T04:45:05;10.20;99.90
4487;DHT22;2256;48.740;9.106;2022-12-29T04:47:32;10.10;99.90
4487;DHT22;2256;48.740;9.106;2022-12-29T04:49:59;10.10;99.90
4487;DHT22;2256;48.740;9.106;2022-12-29T04:52:26;10.10;99.90
4487;DHT22;2256;48.740;9.106;2022-12-29T04:54:52;10.10;99.90
4487;DHT22;2256;48.740;9.106;2022-12-29T04:57:21;10.10;99.90
4487;DHT22;2256;48.740;9.106;2022-12-29T04:59:47;10.10;99.90
4487;DHT22;2256;48.740;9.106;2022-12-29T05:02:14;10.20;99.90
4487;DHT22;2256;48.740;9.106;2022-12-29T05:04:41;10.30;99.90
4487;DHT22;2256;48.740;9.106;2022-12-29T05:07:08;10.30;99.90
4487;DHT22;2256;48.740;9.106;2022-12-29T05:09:35;10.30;99.90
4487;DHT22;2256;48.740;9.106;2022-12-29T05:12:02;10.30;99.90
4487;DHT22;2256;48.740;9.106;2022-12-29T05:14:30;10.30;99.90
4487;DHT22;2256;48.740;9.106;2022-12-29T05:16:57;10.10;99.90
4487;DHT22;2256;48.740;9.106;2022-12-29T05:19:23;10.10;99.90
4487;DHT22;2256;48.740;9.106;2022-12-29T05:21:50;10.10;99.90
4487;DHT22;2256;48.740;9.106;2022-12-29T05:24:17;10.10;99.90
4487;DHT22;2256;48.740;9.106;2022-12-29T05:26:44;10.10;99.90
4487;DHT22;2256;48.740;9.106;2022-12-29T05:29:10;10.00;99.90
4487;DHT22;2256;48.740;9.106;2022-12-29T05:31:38;10.00;99.90
4487;DHT22;2256;48.740;9.106;2022-12-29T05:34:05;10.00;99.90
4487;DHT22;2256;48.740;9.106;2022-12-29T05:36:32;10.00;99.90
4487;DHT22;2256;48.740;9.106;2022-12-29T05:38:59;9.90;99.90
4487;DHT22;2256;48.740;9.106;2022-12-29T05:41:26;9.90;99.90
4487;DHT22;2256;48.740;9.106;2022-12-29T05:43:52;9.90;99.90
4487;DHT22;2256;48.740;9.106;2022-12-29T05:46:19;10.00;99.90
4487;DHT22;2256;48.740;9.106;2022-12-29T05:48:47;10.10;99.90
4487;DHT22;2256;48.740;9.106;2022-12-29T05:51:14;10.10;99.90
4487;DHT22;2256;48.740;9.106;2022-12-29T05:53:41;10.10;99.90
4487;DHT22;2256;48.740;9.106;2022-12-29T05:56:07;10.40;99.90
4487;DHT22;2256;48.740;9.106;2022-12-29T05:58:34;10.30;99.90
4487;DHT22;2256;48.740;9.106;2022-12-29T06:01:01;10.30;99.90
4487;DHT22;2256;48.740;9.106;2022-12-29T06:03:28;10.30;99.90
4487;DHT22;2256;48.740;9.106;2022-12-29T06:05:56;10.30;99.90
4487;DHT22;2256;48.740;9.106;2022-12-29T06:08:23;10.30;99.90
4487;DHT22;2256;48.740;9.106;2022-12-29T06:10:49;10.40;99.90
4487;DHT22;2256;48.740;9.106;2022-12-29T06:13:16;10.40;99.90
4487;DHT22;2256;48.740;9.106;2022-12-29T06:15:43;10.30;99.90
4487;DHT22;2256;48.740;9.106;2022-12-29T06:18:10;10.30;99.90
4487;DHT22;2256;48.740;9.106;2022-12-29T06:20:37;10.30;99.90
4487;DHT22;2256;48.740;9.106;2022-12-29T06:23:05;10.20;99.90
4487;DHT22;2256;48.740;9.106;2022-12-29T06:25:32;10.20;99.90
4487;DHT22;2256;48.740;9.106;2022-12-29T06:27:59;10.30;99.90
4487;DHT22;2256;48.740;9.106;2022-12-29T06:30:26;10.20;99.90
4487;DHT22;2256;48.740;9.106;2022-12-29T06:32:53;10.30;99.90
4487;DHT22;2256;48.740;9.106;2022-12-29T06:35:20;10.30;99.90
4487;DHT22;2256;48.740;9.106;2022-12-29T06:37:47;10.30;99.90
4487;DHT22;2256;48.740;9.106;2022-12-29T06:40:16;10.40;99.90
4487;DHT22;2256;48.740;9.106;2022-12-29T06:42:43;10.50;99.90
4487;DHT22;2256;48.740;9.106;2022-12-29T06:45:10;10.50;99.90
4487;DHT22;2256;48.740;9.106;2022-12-29T06:47:37;10.50;99.90
4487;DHT22;2256;48.740;9.106;2022-12-29T06:50:04;10.50;99.90
4487;DHT22;2256;48.740;9.106;2022-12-29T06:52:31;10.50;99.90
4487;DHT22;2256;48.740;9.106;2022-12-29T06:54:58;10.50;99.90
4487;DHT22;2256;48.740;9.106;2022-12-29T06:57:26;10.60;99.90
4487;DHT22;2256;48.740;9.106;2022-12-29T06:59:53;10.60;99.90
4487;DHT22;2256;48.740;9.106;2022-12-29T07:02:21;10.40;99.90
4487;DHT22;2256;48.740;9.106;2022-12-29T07:04:47;10.40;99.90
4487;DHT22;2256;48.740;9.106;2022-12-29T07:07:14;10.50;99.90
4487;DHT22;2256;48.740;9.106;2022-12-29T07:09:41;10.60;99.90
4487;DHT22;2256;48.740;9.106;2022-12-29T07:12:08;10.40;99.90
4487;DHT22;2256;48.740;9.106;2022-12-29T07:14:36;10.40;99.90
4487;DHT22;2256;48.740;9.106;2022-12-29T07:17:03;10.30;99.90
4487;DHT22;2256;48.740;9.106;2022-12-29T07:19:30;10.20;99.90
4487;DHT22;2256;48.740;9.106;2022-12-29T07:21:57;10.10;99.90
4487;DHT22;2256;48.740;9.106;2022-12-29T07:24:24;10.10;99.90
4487;DHT22;2256;48.740;9.106;2022-12-29T07:26:52;9.90;99.90
4487;DHT22;2256;48.740;9.106;2022-12-29T07:29:19;9.90;99.90
4487;DHT22;2256;48.740;9.106;2022-12-29T07:31:47;9.80;99.90
4487;DHT22;2256;48.740;9.106;2022-12-29T07:34:13;9.70;99.90
4487;DHT22;2256;48.740;9.106;2022-12-29T07:36:40;9.80;99.90
4487;DHT22;2256;48.740;9.106;2022-12-29T07:39:07;9.80;99.90
4487;DHT22;2256;48.740;9.106;2022-12-29T07:41:33;9.80;99.90
4487;DHT22;2256;48.740;9.106;2022-12-29T07:44:00;9.90;99.90
4487;DHT22;2256;48.740;9.106;2022-12-29T07:46:27;9.90;99.90
4487;DHT22;2256;48.740;9.106;2022-12-29T07:48:55;9.90;99.90
4487;DHT22;2256;48.740;9.106;2022-12-29T07:51:22;10.00;99.90
4487;DHT22;2256;48.740;9.106;2022-12-29T07:53:48;10.00;99.90
4487;DHT22;2256;48.740;9.106;2022-12-29T07:56:15;10.00;99.90
4487;DHT22;2256;48.740;9.106;2022-12-29T07:58:42;10.10;99.90
4487;DHT22;2256;48.740;9.106;2022-12-29T08:01:09;10.20;99.90
4487;DHT22;2256;48.740;9.106;2022-12-29T08:03:35;10.20;99.90
4487;DHT22;2256;48.740;9.106;2022-12-29T08:06:05;10.20;99.90
4487;DHT22;2256;48.740;9.106;2022-12-29T08:08:31;10.20;99.90
4487;DHT22;2256;48.740;9.106;2022-12-29T08:10:58;10.20;99.90
4487;DHT22;2256;48.740;9.106;2022-12-29T08:13:25;10.20;99.90
4487;DHT22;2256;48.740;9.106;2022-12-29T08:15:52;10.30;99.90
4487;DHT22;2256;48.740;9.106;2022-12-29T08:18:18;10.30;99.90
4487;DHT22;2256;48.740;9.106;2022-12-29T08:20:45;10.30;99.90
4487;DHT22;2256;48.740;9.106;2022-12-29T08:23:13;10.30;99.90
4487;DHT22;2256;48.740;9.106;2022-12-29T08:25:40;10.50;99.90
4487;DHT22;2256;48.740;9.106;2022-12-29T08:28:07;10.40;99.90
4487;DHT22;2256;48.740;9.106;2022-12-29T08:30:33;10.50;99.90
4487;DHT22;2256;48.740;9.106;2022-12-29T08:33:00;10.50;99.90
4487;DHT22;2256;48.740;9.106;2022-12-29T08:35:27;10.50;99.90
4487;DHT22;2256;48.740;9.106;2022-12-29T08:37:54;10.50;99.90
4487;DHT22;2256;48.740;9.106;2022-12-29T08:40:22;10.60;99.90
4487;DHT22;2256;48.740;9.106;2022-12-29T08:42:49;10.70;99.90
4487;DHT22;2256;48.740;9.106;2022-12-29T08:45:16;10.60;99.90
4487;DHT22;2256;48.740;9.106;2022-12-29T08:47:43;10.70;99.90
4487;DHT22;2256;48.740;9.106;2022-12-29T08:50:10;10.70;99.90
4487;DHT22;2256;48.740;9.106;2022-12-29T08:52:36;10.60;99.90
4487;DHT22;2256;48.740;9.106;2022-12-29T08:55:04;10.50;99.90
4487;DHT22;2256;48.740;9.106;2022-12-29T08:57:32;10.60;99.90
4487;DHT22;2256;48.740;9.106;2022-12-29T08:59:59;10.60;99.90
4487;DHT22;2256;48.740;9.106;2022-12-29T09:02:25;10.60;99.90
4487;DHT22;2256;48.740;9.106;2022-12-29T09:04:52;10.60;99.90
4487;DHT22;2256;48.740;9.106;2022-12-29T09:07:19;10.60;99.90
4487;DHT22;2256;48.740;9.106;2022-12-29T09:09:45;10.60;99.90
4487;DHT22;2256;48.740;9.106;2022-12-29T09:12:12;10.60;99.90
4487;DHT22;2256;48.740;9.106;2022-12-29T09:14:40;10.60;99.90
4487;DHT22;2256;48.740;9.106;2022-12-29T09:17:08;10.70;99.90
4487;DHT22;2256;48.740;9.106;2022-12-29T09:19:53;10.70;99.90
4487;DHT22;2256;48.740;9.106;2022-12-29T09:22:20;10.90;99.90
4487;DHT22;2256;48.740;9.106;2022-12-29T09:24:46;11.00;99.90
4487;DHT22;2256;48.740;9.106;2022-12-29T09:27:13;10.90;99.90
4487;DHT22;2256;48.740;9.106;2022-12-29T09:29:41;11.00;99.90
4487;DHT22;2256;48.740;9.106;2022-12-29T09:32:08;11.10;99.90
4487;DHT22;2256;48.740;9.106;2022-12-29T09:34:35;11.20;99.90
4487;DHT22;2256;48.740;9.106;2022-12-29T09:37:01;11.40;99.90
4487;DHT22;2256;48.740;9.106;2022-12-29T09:39:28;11.50;99.90
4487;DHT22;2256;48.740;9.106;2022-12-29T09:42:01;11.50;99.90
4487;DHT22;2256;48.740;9.106;2022-12-29T09:44:44;11.70;99.90
4487;DHT22;2256;48.740;9.106;2022-12-29T09:47:15;11.90;99.90
4487;DHT22;2256;48.740;9.106;2022-12-29T09:49:45;11.90;99.90
4487;DHT22;2256;48.740;9.106;2022-12-29T09:52:17;12.00;99.90
4487;DHT22;2256;48.740;9.106;2022-12-29T09:54:51;12.00;99.90
4487;DHT22;2256;48.740;9.106;2022-12-29T09:57:24;12.30;99.90
4487;DHT22;2256;48.740;9.106;2022-12-29T09:59:57;12.50;99.90
4487;DHT22;2256;48.740;9.106;2022-12-29T10:02:34;12.50;99.90
4487;DHT22;2256;48.740;9.106;2022-12-29T10:05:03;12.40;99.90
4487;DHT22;2256;48.740;9.106;2022-12-29T10:07:38;12.40;99.90
4487;DHT22;2256;48.740;9.106;2022-12-29T10:10:24;12.40;99.90
4487;DHT22;2256;48.740;9.106;2022-12-29T10:13:01;12.30;99.90
4487;DHT22;2256;48.740;9.106;2022-12-29T10:15:54;12.40;99.90
4487;DHT22;2256;48.740;9.106;2022-12-29T10:18:46;12.30;99.90
4487;DHT22;2256;48.740;9.106;2022-12-29T10:21:25;12.40;99.90
4487;DHT22;2256;48.740;9.106;2022-12-29T10:23:54;12.50;99.90
4487;DHT22;2256;48.740;9.106;2022-12-29T10:26:23;12.40;99.90
4487;DHT22;2256;48.740;9.106;2022-12-29T10:28:55;12.50;99.90
4487;DHT22;2256;48.740;9.106;2022-12-29T10:31:33;12.60;99.90
4487;DHT22;2256;48.740;9.106;2022-12-29T10:34:03;12.60;99.90
4487;DHT22;2256;48.740;9.106;2022-12-29T10:36:35;12.70;99.90
4487;DHT22;2256;48.740;9.106;2022-12-29T10:39:10;12.80;99.90
4487;DHT22;2256;48.740;9.106;2022-12-29T10:41:46;12.60;99.90
4487;DHT22;2256;48.740;9.106;2022-12-29T10:44:15;12.70;99.90
4487;DHT22;2256;48.740;9.106;2022-12-29T10:46:44;12.90;99.90
4487;DHT22;2256;48.740;9.106;2022-12-29T10:49:16;13.10;99.90
4487;DHT22;2256;48.740;9.106;2022-12-29T10:51:44;13.30;99.90
4487;DHT22;2256;48.740;9.106;2022-12-29T10:54:18;13.50;99.90
4487;DHT22;2256;48.740;9.106;2022-12-29T10:56:51;13.50;99.90
4487;DHT22;2256;48.740;9.106;2022-12-29T10:59:21;13.70;99.90
4487;DHT22;2256;48.740;9.106;2022-12-29T11:01:58;13.80;99.90
4487;DHT22;2256;48.740;9.106;2022-12-29T11:04:39;13.70;99.90
4487;DHT22;2256;48.740;9.106;2022-12-29T11:07:10;13.70;99.90
4487;DHT22;2256;48.740;9.106;2022-12-29T11:09:38;13.70;99.90
4487;DHT22;2256;48.740;9.106;2022-12-29T11:12:19;13.50;99.90
4487;DHT22;2256;48.740;9.106;2022-12-29T11:14:47;13.50;99.90
4487;DHT22;2256;48.740;9.106;2022-12-29T11:17:16;13.40;99.90
4487;DHT22;2256;48.740;9.106;2022-12-29T11:19:44;13.20;99.90
4487;DHT22;2256;48.740;9.106;2022-12-29T11:22:20;13.20;99.90
4487;DHT22;2256;48.740;9.106;2022-12-29T11:24:49;13.20;99.90
4487;DHT22;2256;48.740;9.106;2022-12-29T11:27:17;13.10;99.90
4487;DHT22;2256;48.740;9.106;2022-12-29T11:29:45;12.90;99.90
4487;DHT22;2256;48.740;9.106;2022-12-29T11:32:13;12.90;99.90
4487;DHT22;2256;48.740;9.106;2022-12-29T11:34:45;12.70;99.90
4487;DHT22;2256;48.740;9.106;2022-12-29T11:37:14;12.60;99.90
4487;DHT22;2256;48.740;9.106;2022-12-29T11:39:48;12.50;99.90
4487;DHT22;2256;48.740;9.106;2022-12-29T11:42:18;12.40;99.90
4487;DHT22;2256;48.740;9.106;2022-12-29T11:44:48;12.40;99.90
4487;DHT22;2256;48.740;9.106;2022-12-29T11:47:27;12.30;99.90
4487;DHT22;2256;48.740;9.106;2022-12-29T11:49:58;12.30;99.90
4487;DHT22;2256;48.740;9.106;2022-12-29T11:52:28;12.40;99.90
4487;DHT22;2256;48.740;9.106;2022-12-29T11:54:56;12.30;99.90
4487;DHT22;2256;48.740;9.106;2022-12-29T11:57:25;12.30;99.90
4487;DHT22;2256;48.740;9.106;2022-12-29T11:59:53;12.30;99.90
4487;DHT22;2256;48.740;9.106;2022-12-29T12:02:40;12.20;99.90
4487;DHT22;2256;48.740;9.106;2022-12-29T12:05:20;12.10;99.90
4487;DHT22;2256;48.740;9.106;2022-12-29T12:07:52;12.20;99.90
4487;DHT22;2256;48.740;9.106;2022-12-29T12:10:23;12.20;99.90
4487;DHT22;2256;48.740;9.106;2022-12-29T12:12:56;12.00;99.90
4487;DHT22;2256;48.740;9.106;2022-12-29T12:15:29;12.00;99.90
4487;DHT22;2256;48.740;9.106;2022-12-29T12:18:02;11.90;99.90
4487;DHT22;2256;48.740;9.106;2022-12-29T12:20:41;11.90;99.90
4487;DHT22;2256;48.740;9.106;2022-12-29T12:23:15;11.80;99.90
4487;DHT22;2256;48.740;9.106;2022-12-29T12:25:54;11.70;99.90
4487;DHT22;2256;48.740;9.106;2022-12-29T12:28:28;11.70;99.90
4487;DHT22;2256;48.740;9.106;2022-12-29T12:31:01;11.80;99.90
4487;DHT22;2256;48.740;9.106;2022-12-29T12:33:31;11.90;99.90
4487;DHT22;2256;48.740;9.106;2022-12-29T12:36:17;12.00;99.90
4487;DHT22;2256;48.740;9.106;2022-12-29T12:38:54;12.00;99.90
4487;DHT22;2256;48.740;9.106;2022-12-29T12:41:28;11.90;99.90
4487;DHT22;2256;48.740;9.106;2022-12-29T12:44:04;11.80;99.90
4487;DHT22;2256;48.740;9.106;2022-12-29T12:46:52;11.70;99.90
4487;DHT22;2256;48.740;9.106;2022-12-29T12:49:46;11.40;99.90
4487;DHT22;2256;48.740;9.106;2022-12-29T12:52:22;11.40;99.90
4487;DHT22;2256;48.740;9.106;2022-12-29T12:55:27;11.30;99.90
4487;DHT22;2256;48.740;9.106;2022-12-29T12:58:03;11.40;99.90
4487;DHT22;2256;48.740;9.106;2022-12-29T13:00:37;11.30;99.90
4487;DHT22;2256;48.740;9.106;2022-12-29T13:03:12;11.50;99.90
4487;DHT22;2256;48.740;9.106;2022-12-29T13:05:53;11.70;99.90
4487;DHT22;2256;48.740;9.106;2022-12-29T13:08:43;11.90;99.90
4487;DHT22;2256;48.740;9.106;2022-12-29T13:11:17;12.00;99.90
4487;DHT22;2256;48.740;9.106;2022-12-29T13:14:12;12.00;99.90
4487;DHT22;2256;48.740;9.106;2022-12-29T13:16:43;11.90;99.90
4487;DHT22;2256;48.740;9.106;2022-12-29T13:19:17;11.90;99.90
4487;DHT22;2256;48.740;9.106;2022-12-29T13:21:57;12.10;99.90
4487;DHT22;2256;48.740;9.106;2022-12-29T13:24:32;12.10;99.90
4487;DHT22;2256;48.740;9.106;2022-12-29T13:27:08;12.00;99.90
4487;DHT22;2256;48.740;9.106;2022-12-29T13:29:44;12.00;99.90
4487;DHT22;2256;48.740;9.106;2022-12-29T13:32:20;12.00;99.90
4487;DHT22;2256;48.740;9.106;2022-12-29T13:34:56;12.00;99.90
4487;DHT22;2256;48.740;9.106;2022-12-29T13:37:27;11.90;99.90
4487;DHT22;2256;48.740;9.106;2022-12-29T13:39:59;11.80;99.90
4487;DHT22;2256;48.740;9.106;2022-12-29T13:42:29;11.70;99.90
4487;DHT22;2256;48.740;9.106;2022-12-29T13:44:59;11.80;99.90
4487;DHT22;2256;48.740;9.106;2022-12-29T13:47:31;11.80;99.90
4487;DHT22;2256;48.740;9.106;2022-12-29T13:50:01;11.80;99.90
4487;DHT22;2256;48.740;9.106;2022-12-29T13:52:36;11.80;99.90
4487;DHT22;2256;48.740;9.106;2022-12-29T13:55:20;11.90;99.90
4487;DHT22;2256;48.740;9.106;2022-12-29T13:57:53;11.80;99.90
4487;DHT22;2256;48.740;9.106;2022-12-29T14:00:23;11.80;99.90
4487;DHT22;2256;48.740;9.106;2022-12-29T14:03:19;11.80;99.90
4487;DHT22;2256;48.740;9.106;2022-12-29T14:06:04;11.80;99.90
4487;DHT22;2256;48.740;9.106;2022-12-29T14:08:34;11.80;99.90
4487;DHT22;2256;48.740;9.106;2022-12-29T14:11:07;11.90;99.90
4487;DHT22;2256;48.740;9.106;2022-12-29T14:13:38;12.00;99.90
4487;DHT22;2256;48.740;9.106;2022-12-29T14:16:06;12.00;99.90
4487;DHT22;2256;48.740;9.106;2022-12-29T14:18:33;11.90;99.90
4487;DHT22;2256;48.740;9.106;2022-12-29T14:21:11;11.80;99.90
4487;DHT22;2256;48.740;9.106;2022-12-29T14:23:45;11.80;99.90
4487;DHT22;2256;48.740;9.106;2022-12-29T14:26:15;11.60;99.90
4487;DHT22;2256;48.740;9.106;2022-12-29T14:28:44;11.50;99.90
4487;DHT22;2256;48.740;9.106;2022-12-29T14:31:33;11.50;99.90
4487;DHT22;2256;48.740;9.106;2022-12-29T14:34:22;11.60;99.90
4487;DHT22;2256;48.740;9.106;2022-12-29T14:36:54;11.50;99.90
4487;DHT22;2256;48.740;9.106;2022-12-29T14:39:32;11.60;99.90
4487;DHT22;2256;48.740;9.106;2022-12-29T14:42:04;11.40;99.90
4487;DHT22;2256;48.740;9.106;2022-12-29T14:44:32;11.20;99.90
4487;DHT22;2256;48.740;9.106;2022-12-29T14:47:03;11.10;99.90
4487;DHT22;2256;48.740;9.106;2022-12-29T14:49:39;11.10;99.90
4487;DHT22;2256;48.740;9.106;2022-12-29T14:52:14;11.10;99.90
4487;DHT22;2256;48.740;9.106;2022-12-29T14:54:45;11.10;99.90
4487;DHT22;2256;48.740;9.106;2022-12-29T14:57:20;11.00;99.90
4487;DHT22;2256;48.740;9.106;2022-12-29T14:59:53;11.00;99.90
4487;DHT22;2256;48.740;9.106;2022-12-29T15:02:23;10.90;99.90
4487;DHT22;2256;48.740;9.106;2022-12-29T15:04:51;10.80;99.90
4487;DHT22;2256;48.740;9.106;2022-12-29T15:07:20;10.70;99.90
4487;DHT22;2256;48.740;9.106;2022-12-29T15:09:51;10.60;99.90
4487;DHT22;2256;48.740;9.106;2022-12-29T15:12:23;10.70;99.90
4487;DHT22;2256;48.740;9.106;2022-12-29T15:14:56;10.60;99.90
4487;DHT22;2256;48.740;9.106;2022-12-29T15:17:25;10.60;99.90
4487;DHT22;2256;48.740;9.106;2022-12-29T15:19:53;10.60;99.90
4487;DHT22;2256;48.740;9.106;2022-12-29T15:22:20;10.60;99.90
4487;DHT22;2256;48.740;9.106;2022-12-29T15:24:49;10.60;99.90
4487;DHT22;2256;48.740;9.106;2022-12-29T15:27:21;10.60;99.90
4487;DHT22;2256;48.740;9.106;2022-12-29T15:29:56;10.60;99.90
4487;DHT22;2256;48.740;9.106;2022-12-29T15:32:24;10.60;99.90
4487;DHT22;2256;48.740;9.106;2022-12-29T15:34:53;10.60;99.90
4487;DHT22;2256;48.740;9.106;2022-12-29T15:37:22;10.60;99.90
4487;DHT22;2256;48.740;9.106;2022-12-29T15:39:50;10.50;99.90
4487;DHT22;2256;48.740;9.106;2022-12-29T15:42:32;10.50;99.90
4487;DHT22;2256;48.740;9.106;2022-12-29T15:45:04;10.50;99.90
4487;DHT22;2256;48.740;9.106;2022-12-29T15:47:31;10.50;99.90
4487;DHT22;2256;48.740;9.106;2022-12-29T15:50:02;10.50;99.90
4487;DHT22;2256;48.740;9.106;2022-12-29T15:52:31;10.50;99.90
4487;DHT22;2256;48.740;9.106;2022-12-29T15:54:59;10.70;99.90
4487;DHT22;2256;48.740;9.106;2022-12-29T15:57:30;10.60;99.90
4487;DHT22;2256;48.740;9.106;2022-12-29T15:59:58;10.60;99.90
4487;DHT22;2256;48.740;9.106;2022-12-29T16:02:26;10.80;99.90
4487;DHT22;2256;48.740;9.106;2022-12-29T16:04:54;10.70;99.90
4487;DHT22;2256;48.740;9.106;2022-12-29T16:07:27;10.60;99.90
4487;DHT22;2256;48.740;9.106;2022-12-29T16:09:55;10.50;99.90
4487;DHT22;2256;48.740;9.106;2022-12-29T16:12:25;10.40;99.90
4487;DHT22;2256;48.740;9.106;2022-12-29T16:14:56;10.10;99.90
4487;DHT22;2256;48.740;9.106;2022-12-29T16:17:25;9.90;99.90
4487;DHT22;2256;48.740;9.106;2022-12-29T16:19:54;9.80;99.90
4487;DHT22;2256;48.740;9.106;2022-12-29T16:22:26;9.60;99.90
4487;DHT22;2256;48.740;9.106;2022-12-29T16:24:56;9.60;99.90
4487;DHT22;2256;48.740;9.106;2022-12-29T16:27:31;9.50;99.90
4487;DHT22;2256;48.740;9.106;2022-12-29T16:30:04;9.40;99.90
4487;DHT22;2256;48.740;9.106;2022-12-29T16:32:32;9.30;99.90